createdAt,value
2022-12-09T00:00:35.400Z,14.48
2022-12-09T00:03:02.989Z,14.45
2022-12-09T00:05:30.934Z,14.10
2022-12-09T00:07:58.509Z,13.90
2022-12-09T00:10:25.981Z,13.60
2022-12-09T00:12:55.625Z,12.65
2022-12-09T00:15:23.164Z,14.02
2022-12-09T00:17:50.654Z,12.88
2022-12-09T00:20:18.139Z,12.38
2022-12-09T00:22:45.952Z,12.02
2022-12-09T00:25:13.470Z,12.38
2022-12-09T00:27:40.988Z,11.50
2022-12-09T00:30:09.215Z,11.88
2022-12-09T00:32:37.078Z,12.15
2022-12-09T00:35:06.010Z,12.45
2022-12-09T00:37:35.487Z,12.88
2022-12-09T00:40:03.366Z,13.15
2022-12-09T00:42:30.958Z,13.88
2022-12-09T00:44:58.431Z,13.13
2022-12-09T00:47:25.992Z,13.52
2022-12-09T00:49:53.648Z,11.85
2022-12-09T00:52:21.027Z,11.88
2022-12-09T00:54:48.658Z,11.45
2022-12-09T00:57:16.217Z,11.70
2022-12-09T00:59:43.748Z,11.15
2022-12-09T01:02:11.866Z,11.40
2022-12-09T01:04:39.794Z,11.57
2022-12-09T01:07:07.311Z,12.45
2022-12-09T01:09:35.538Z,12.88
2022-12-09T01:12:03.984Z,12.90
2022-12-09T01:14:31.528Z,13.45
2022-12-09T01:16:59.311Z,13.52
2022-12-09T01:19:26.919Z,12.73
2022-12-09T01:21:55.543Z,13.02
2022-12-09T01:24:23.125Z,12.65
2022-12-09T01:26:50.733Z,12.40
2022-12-09T01:29:19.687Z,13.23
2022-12-09T01:31:48.147Z,14.63
2022-12-09T01:34:15.704Z,13.35
2022-12-09T01:36:43.395Z,14.07
2022-12-09T01:39:11.499Z,15.20
2022-12-09T01:41:38.890Z,14.10
2022-12-09T01:44:10.523Z,14.30
2022-12-09T01:46:38.233Z,13.95
2022-12-09T01:49:06.836Z,15.52
2022-12-09T01:51:34.928Z,13.77
2022-12-09T01:54:02.584Z,14.45
2022-12-09T01:56:31.562Z,15.10
2022-12-09T01:59:01.192Z,14.48
2022-12-09T02:01:29.134Z,15.50
2022-12-09T02:03:57.077Z,15.75
2022-12-09T02:06:24.679Z,14.20
2022-12-09T02:08:52.687Z,13.13
2022-12-09T02:11:35.021Z,13.88
2022-12-09T02:14:21.181Z,12.98
2022-12-09T02:17:11.176Z,15.10
2022-12-09T02:19:38.797Z,13.88
2022-12-09T02:22:08.514Z,12.77
2022-12-09T02:24:42.459Z,13.45
2022-12-09T02:29:54.063Z,12.60
2022-12-09T02:32:46.097Z,12.00
2022-12-09T02:35:35.472Z,11.63
2022-12-09T02:38:17.562Z,12.23
2022-12-09T02:40:59.388Z,11.68
2022-12-09T02:43:29.902Z,12.95
2022-12-09T02:45:59.206Z,12.13
2022-12-09T02:48:41.075Z,11.82
2022-12-09T02:51:10.814Z,12.48
2022-12-09T02:53:40.277Z,12.77
2022-12-09T02:56:09.127Z,12.15
2022-12-09T02:58:36.763Z,13.73
2022-12-09T03:01:05.184Z,12.93
2022-12-09T03:03:34.982Z,13.07
2022-12-09T03:06:08.213Z,13.35
2022-12-09T03:09:02.585Z,13.07
2022-12-09T03:11:31.150Z,13.07
2022-12-09T03:14:05.597Z,13.43
2022-12-09T03:16:52.381Z,11.90
2022-12-09T03:19:22.654Z,12.60
2022-12-09T03:21:52.939Z,12.10
2022-12-09T03:24:23.304Z,13.10
2022-12-09T03:26:52.600Z,12.88
2022-12-09T03:29:22.655Z,13.13
2022-12-09T03:31:51.839Z,14.52
2022-12-09T03:34:22.269Z,13.63
2022-12-09T03:36:51.381Z,13.73
2022-12-09T03:39:21.841Z,14.52
2022-12-09T03:41:52.909Z,13.93
2022-12-09T03:44:23.253Z,13.88
2022-12-09T03:46:50.830Z,13.80
2022-12-09T03:49:18.449Z,13.35
2022-12-09T03:51:49.067Z,12.93
2022-12-09T03:54:16.733Z,14.45
2022-12-09T03:56:46.831Z,13.27
2022-12-09T03:59:16.175Z,14.52
2022-12-09T04:01:45.281Z,14.00
2022-12-09T04:04:14.532Z,14.52
2022-12-09T04:06:42.422Z,14.52
2022-12-09T04:09:11.527Z,16.10
2022-12-09T04:11:39.823Z,14.95
2022-12-09T04:14:11.928Z,13.90
2022-12-09T04:16:42.831Z,13.80
2022-12-09T04:19:10.409Z,14.43
2022-12-09T04:21:37.956Z,13.70
2022-12-09T04:24:05.719Z,12.45
2022-12-09T04:26:34.940Z,11.85
2022-12-09T04:29:03.086Z,13.23
2022-12-09T04:31:30.972Z,13.48
2022-12-09T04:34:01.548Z,12.68
2022-12-09T04:36:31.807Z,13.57
2022-12-09T04:39:00.030Z,12.95
2022-12-09T04:41:28.477Z,12.95
2022-12-09T04:43:56.027Z,12.48
2022-12-09T04:46:23.921Z,13.20
2022-12-09T04:48:51.503Z,13.85
2022-12-09T04:51:18.940Z,15.23
2022-12-09T04:53:46.473Z,14.02
2022-12-09T04:56:15.857Z,13.95
2022-12-09T04:58:44.949Z,13.75
2022-12-09T05:01:18.293Z,14.93
2022-12-09T05:03:53.262Z,14.35
2022-12-09T05:06:21.975Z,13.60
2022-12-09T05:08:49.868Z,12.48
2022-12-09T05:11:18.636Z,13.68
2022-12-09T05:13:46.565Z,12.75
2022-12-09T05:16:16.844Z,12.85
2022-12-09T05:18:45.729Z,11.48
2022-12-09T05:21:15.338Z,12.57
2022-12-09T05:23:43.678Z,12.65
2022-12-09T05:26:13.203Z,11.93
2022-12-09T05:28:41.127Z,11.27
2022-12-09T05:31:11.443Z,11.70
2022-12-09T05:33:39.609Z,11.20
2022-12-09T05:36:11.747Z,11.45
2022-12-09T05:38:39.829Z,10.95
2022-12-09T05:41:07.938Z,10.77
2022-12-09T05:43:37.118Z,11.07
2022-12-09T05:46:06.805Z,8.52
2022-12-09T05:48:35.271Z,8.70
2022-12-09T05:51:04.783Z,8.32
2022-12-09T05:53:32.806Z,9.57
2022-12-09T05:56:00.846Z,11.27
2022-12-09T05:58:28.921Z,11.02
2022-12-09T06:00:58.034Z,10.40
2022-12-09T06:03:25.937Z,9.00
2022-12-09T06:05:54.312Z,10.35
2022-12-09T06:08:21.984Z,10.32
2022-12-09T06:10:50.231Z,11.45
2022-12-09T06:13:17.785Z,10.13
2022-12-09T06:15:45.461Z,11.18
2022-12-09T06:18:13.118Z,11.68
2022-12-09T06:20:41.730Z,11.57
2022-12-09T06:23:09.669Z,12.40
2022-12-09T06:25:37.592Z,11.52
2022-12-09T06:28:05.523Z,11.60
2022-12-09T06:30:33.165Z,12.85
2022-12-09T06:33:01.397Z,13.45
2022-12-09T06:35:29.301Z,13.05
2022-12-09T06:37:56.976Z,14.25
2022-12-09T06:40:24.855Z,13.25
2022-12-09T06:42:52.544Z,13.85
2022-12-09T06:45:21.139Z,14.48
2022-12-09T06:47:49.308Z,12.45
2022-12-09T06:50:17.379Z,13.20
2022-12-09T06:52:45.405Z,12.98
2022-12-09T06:55:13.624Z,13.95
2022-12-09T06:57:41.935Z,14.05
2022-12-09T07:00:10.001Z,14.98
2022-12-09T07:02:38.157Z,15.13
2022-12-09T07:05:06.638Z,15.43
2022-12-09T07:07:35.132Z,13.38
2022-12-09T07:10:04.078Z,13.23
2022-12-09T07:12:32.151Z,14.07
2022-12-09T07:14:59.961Z,14.35
2022-12-09T07:17:27.913Z,14.30
2022-12-09T07:19:56.112Z,16.88
2022-12-09T07:22:25.552Z,16.88
2022-12-09T07:24:52.961Z,17.10
2022-12-09T07:27:20.655Z,17.33
2022-12-09T07:29:48.159Z,17.42
2022-12-09T07:32:15.667Z,17.35
2022-12-09T07:34:43.398Z,17.17
2022-12-09T07:37:11.461Z,17.38
2022-12-09T07:39:38.935Z,16.45
2022-12-09T07:42:06.587Z,17.23
2022-12-09T07:44:46.076Z,19.17
2022-12-09T07:47:14.105Z,18.05
2022-12-09T07:49:41.673Z,18.23
2022-12-09T07:52:09.711Z,15.85
2022-12-09T07:54:37.311Z,14.57
2022-12-09T07:57:05.030Z,14.23
2022-12-09T07:59:32.507Z,11.88
2022-12-09T08:02:05.477Z,13.48
2022-12-09T08:04:36.221Z,11.68
2022-12-09T08:07:04.517Z,10.73
2022-12-09T08:09:32.302Z,10.48
2022-12-09T08:12:00.186Z,11.32
2022-12-09T08:14:27.849Z,12.35
2022-12-09T08:16:55.593Z,11.10
2022-12-09T08:19:23.314Z,10.52
2022-12-09T08:21:54.504Z,11.30
2022-12-09T08:24:22.822Z,11.07
2022-12-09T08:26:51.459Z,11.15
2022-12-09T08:29:20.051Z,9.82
2022-12-09T08:31:48.167Z,9.75
2022-12-09T08:34:16.265Z,9.40
2022-12-09T08:36:44.445Z,8.73
2022-12-09T08:39:13.189Z,8.60
2022-12-09T08:41:41.136Z,8.90
2022-12-09T08:44:13.250Z,9.25
2022-12-09T08:46:43.817Z,10.55
2022-12-09T08:49:12.799Z,9.70
2022-12-09T08:51:41.390Z,11.20
2022-12-09T08:54:09.251Z,11.90
2022-12-09T08:56:37.377Z,12.77
2022-12-09T08:59:05.244Z,11.60
2022-12-09T09:01:35.623Z,11.40
2022-12-09T09:04:07.028Z,12.13
2022-12-09T09:06:36.295Z,11.23
2022-12-09T09:09:04.273Z,11.13
2022-12-09T09:11:32.445Z,12.27
2022-12-09T09:14:00.388Z,11.07
2022-12-09T09:16:28.466Z,12.60
2022-12-09T09:18:56.411Z,14.20
2022-12-09T09:21:26.869Z,14.18
2022-12-09T09:23:54.840Z,15.48
2022-12-09T09:26:23.941Z,16.23
2022-12-09T09:28:51.717Z,16.33
2022-12-09T09:31:21.225Z,16.92
2022-12-09T09:33:49.895Z,17.20
2022-12-09T09:36:22.615Z,19.30
2022-12-09T09:38:50.925Z,17.17
2022-12-09T09:41:38.678Z,15.80
2022-12-09T09:44:10.837Z,17.13
2022-12-09T09:46:40.684Z,17.20
2022-12-09T09:49:13.314Z,16.42
2022-12-09T09:51:41.402Z,16.55
2022-12-09T09:54:11.708Z,14.73
2022-12-09T09:56:59.496Z,14.40
2022-12-09T09:59:44.537Z,13.60
2022-12-09T10:02:12.670Z,19.58
2022-12-09T10:05:10.174Z,12.95
2022-12-09T10:07:42.858Z,12.77
2022-12-09T10:10:21.908Z,12.68
2022-12-09T10:13:08.349Z,12.10
2022-12-09T10:15:45.090Z,11.20
2022-12-09T10:18:29.681Z,12.18
2022-12-09T10:20:57.308Z,12.88
2022-12-09T10:23:26.142Z,12.68
2022-12-09T10:25:59.565Z,13.18
2022-12-09T10:28:30.011Z,16.35
2022-12-09T10:30:58.123Z,12.00
2022-12-09T10:33:30.511Z,12.50
2022-12-09T10:35:59.316Z,12.18
2022-12-09T10:38:28.283Z,11.98
2022-12-09T10:41:11.186Z,12.15
2022-12-09T10:43:42.024Z,11.75
2022-12-09T10:46:20.561Z,12.00
2022-12-09T10:48:50.680Z,12.40
2022-12-09T10:51:29.371Z,11.23
2022-12-09T10:54:06.366Z,12.02
2022-12-09T10:56:37.759Z,11.60
2022-12-09T10:59:11.822Z,13.15
2022-12-09T11:01:49.606Z,13.23
2022-12-09T11:04:22.792Z,13.65
2022-12-09T11:06:55.638Z,13.15
2022-12-09T11:09:31.965Z,12.90
2022-12-09T11:12:00.495Z,13.43
2022-12-09T11:14:34.891Z,14.75
2022-12-09T11:17:12.115Z,14.90
2022-12-09T11:19:40.157Z,15.25
2022-12-09T11:22:16.109Z,13.43
2022-12-09T11:24:44.119Z,13.82
2022-12-09T11:27:31.098Z,12.88
2022-12-09T11:30:16.807Z,14.45
2022-12-09T11:33:01.137Z,15.60
2022-12-09T11:35:41.010Z,17.10
2022-12-09T11:38:23.905Z,16.65
2022-12-09T11:41:02.663Z,16.75
2022-12-09T11:43:41.326Z,16.95
2022-12-09T11:46:15.087Z,15.90
2022-12-09T11:48:44.206Z,16.25
2022-12-09T11:51:22.649Z,15.82
2022-12-09T11:53:52.452Z,15.65
2022-12-09T11:56:25.866Z,17.50
2022-12-09T11:58:53.291Z,18.45
2022-12-09T12:01:33.429Z,17.83
2022-12-09T12:04:02.065Z,19.40
2022-12-09T12:06:41.151Z,18.50
2022-12-09T12:09:28.861Z,19.45
2022-12-09T12:12:20.364Z,21.67
2022-12-09T12:14:47.769Z,20.08
2022-12-09T12:17:21.212Z,20.17
2022-12-09T12:19:51.113Z,19.70
2022-12-09T12:22:37.167Z,19.38
2022-12-09T12:25:12.385Z,17.73
2022-12-09T12:27:54.252Z,18.40
2022-12-09T12:30:23.980Z,18.58
2022-12-09T12:33:40.700Z,21.58
2022-12-09T12:35:51.344Z,20.85
2022-12-09T12:38:37.222Z,25.75
2022-12-09T12:41:04.711Z,23.02
2022-12-09T12:44:02.692Z,23.60
2022-12-09T12:47:02.500Z,21.98
2022-12-09T12:49:42.436Z,22.30
2022-12-09T12:52:54.973Z,21.80
2022-12-09T12:55:17.733Z,21.25
2022-12-09T12:57:51.439Z,21.00
2022-12-09T13:00:24.118Z,21.05
2022-12-09T13:03:09.474Z,21.02
2022-12-09T13:05:38.317Z,21.58
2022-12-09T13:08:08.184Z,21.20
2022-12-09T13:10:39.637Z,19.90
2022-12-09T13:13:11.787Z,19.63
2022-12-09T13:15:47.261Z,17.73
2022-12-09T13:18:32.614Z,19.00
2022-12-09T13:21:01.103Z,20.27
2022-12-09T13:23:43.769Z,21.63
2022-12-09T13:26:26.646Z,20.35
2022-12-09T13:29:23.377Z,18.83
2022-12-09T13:32:07.754Z,20.45
2022-12-09T13:34:38.507Z,19.23
2022-12-09T13:37:06.130Z,18.95
2022-12-09T13:39:42.590Z,18.65
2022-12-09T13:42:56.212Z,17.77
2022-12-09T13:45:34.674Z,19.98
2022-12-09T13:48:27.992Z,20.75
2022-12-09T13:51:00.451Z,23.50
2022-12-09T13:53:33.848Z,20.02
2022-12-09T13:56:03.621Z,20.05
2022-12-09T13:58:30.972Z,20.67
2022-12-09T14:01:05.480Z,21.98
2022-12-09T14:03:38.474Z,22.92
2022-12-09T14:06:19.003Z,23.63
2022-12-09T14:08:48.649Z,23.30
2022-12-09T14:11:34.873Z,21.15
2022-12-09T14:14:25.429Z,22.50
2022-12-09T14:16:55.638Z,24.83
2022-12-09T14:19:28.590Z,25.25
2022-12-09T14:22:17.197Z,21.20
2022-12-09T14:24:51.749Z,23.85
2022-12-09T14:27:23.592Z,20.85
2022-12-09T14:29:54.104Z,21.58
2022-12-09T14:32:23.047Z,26.25
2022-12-09T14:35:01.385Z,24.55
2022-12-09T14:37:49.109Z,22.13
2022-12-09T14:40:16.679Z,35.97
2022-12-09T14:42:50.707Z,30.20
2022-12-09T14:45:21.296Z,26.75
2022-12-09T14:47:48.907Z,31.45
2022-12-09T14:50:21.414Z,25.75
2022-12-09T14:52:53.963Z,30.15
2022-12-09T14:55:23.637Z,26.63
2022-12-09T14:57:51.362Z,27.75
2022-12-09T15:00:45.283Z,29.45
2022-12-09T15:03:44.849Z,27.65
2022-12-09T15:06:13.148Z,25.77
2022-12-09T15:08:41.583Z,50.10
2022-12-09T15:11:17.141Z,31.83
2022-12-09T15:13:46.187Z,47.70
2022-12-09T15:16:14.954Z,38.17
2022-12-09T15:18:43.350Z,59.80
2022-12-09T15:21:11.034Z,49.97
2022-12-09T15:23:44.464Z,41.92
2022-12-09T15:26:23.247Z,27.58
2022-12-09T15:28:51.975Z,35.85
2022-12-09T15:31:20.587Z,37.45
2022-12-09T15:33:54.293Z,39.80
2022-12-09T15:36:26.935Z,24.17
2022-12-09T15:39:00.099Z,22.85
2022-12-09T15:41:52.552Z,22.80
2022-12-09T15:44:21.917Z,21.70
2022-12-09T15:46:51.243Z,25.90
2022-12-09T15:49:22.877Z,25.30
2022-12-09T15:51:53.347Z,35.05
2022-12-09T15:54:23.182Z,31.45
2022-12-09T15:56:50.725Z,31.50
2022-12-09T15:59:20.679Z,36.28
2022-12-09T16:01:52.945Z,28.63
2022-12-09T16:04:22.269Z,22.45
2022-12-09T16:06:50.382Z,30.25
2022-12-09T16:09:19.526Z,29.88
2022-12-09T16:11:48.194Z,30.48
2022-12-09T16:14:16.646Z,29.50
2022-12-09T16:16:44.080Z,23.17
2022-12-09T16:19:25.117Z,21.45
2022-12-09T16:21:57.542Z,21.70
2022-12-09T16:24:30.957Z,20.73
2022-12-09T16:27:07.465Z,21.30
2022-12-09T16:29:36.305Z,22.00
2022-12-09T16:32:19.224Z,26.80
2022-12-09T16:34:47.724Z,23.60
2022-12-09T16:37:23.390Z,18.83
2022-12-09T16:39:50.892Z,19.50
2022-12-09T16:42:22.272Z,23.58
2022-12-09T16:44:49.911Z,25.13
2022-12-09T16:47:24.305Z,25.60
2022-12-09T16:49:51.841Z,21.73
2022-12-09T16:52:24.337Z,27.67
2022-12-09T16:54:52.009Z,23.48
2022-12-09T16:57:20.640Z,22.27
2022-12-09T16:59:48.391Z,19.30
2022-12-09T17:02:35.787Z,21.13
2022-12-09T17:05:03.219Z,23.58
2022-12-09T17:07:30.713Z,24.73
2022-12-09T17:09:58.238Z,24.92
2022-12-09T17:12:25.720Z,20.88
2022-12-09T17:14:53.144Z,24.15
2022-12-09T17:17:20.622Z,25.58
2022-12-09T17:19:48.045Z,19.88
2022-12-09T17:22:15.604Z,21.48
2022-12-09T17:24:43.026Z,22.48
2022-12-09T17:27:10.538Z,21.67
2022-12-09T17:29:38.237Z,22.77
2022-12-09T17:32:06.272Z,20.92
2022-12-09T17:34:33.819Z,22.10
2022-12-09T17:37:01.234Z,25.15
2022-12-09T17:39:28.627Z,19.45
2022-12-09T17:41:56.061Z,20.80
2022-12-09T17:44:23.574Z,22.98
2022-12-09T17:46:51.229Z,23.05
2022-12-09T17:49:19.025Z,24.58
2022-12-09T17:51:46.630Z,30.20
2022-12-09T17:54:14.013Z,28.60
2022-12-09T17:56:41.483Z,52.63
2022-12-09T17:59:11.398Z,24.38
2022-12-09T18:01:40.470Z,28.45
2022-12-09T18:04:11.608Z,29.77
2022-12-09T18:06:40.349Z,30.00
2022-12-09T18:09:08.734Z,42.05
2022-12-09T18:11:36.548Z,21.92
2022-12-09T18:14:04.750Z,20.10
2022-12-09T18:16:32.273Z,22.38
2022-12-09T18:19:06.715Z,20.67
2022-12-09T18:21:34.815Z,22.70
2022-12-09T18:24:02.320Z,21.77
2022-12-09T18:26:32.993Z,22.48
2022-12-09T18:29:03.026Z,29.35
2022-12-09T18:31:30.626Z,48.92
2022-12-09T18:33:58.049Z,30.75
2022-12-09T18:36:26.973Z,32.35
2022-12-09T18:38:54.391Z,20.20
2022-12-09T18:41:23.950Z,20.88
2022-12-09T18:43:52.186Z,19.70
2022-12-09T18:46:46.275Z,22.15
2022-12-09T18:49:13.804Z,17.90
2022-12-09T18:51:42.215Z,19.38
2022-12-09T18:54:09.892Z,19.90
2022-12-09T18:56:37.542Z,23.13
2022-12-09T18:59:07.153Z,20.98
2022-12-09T19:01:39.376Z,20.42
2022-12-09T19:04:08.777Z,18.55
2022-12-09T19:06:37.476Z,19.75
2022-12-09T19:09:06.226Z,18.85
2022-12-09T19:11:35.833Z,20.52
2022-12-09T19:14:04.125Z,19.33
2022-12-09T19:16:31.769Z,24.73
2022-12-09T19:19:03.801Z,30.17
2022-12-09T19:21:34.902Z,20.48
2022-12-09T19:24:02.405Z,20.08
2022-12-09T19:26:31.731Z,19.77
2022-12-09T19:29:01.124Z,20.23
2022-12-09T19:31:33.662Z,20.08
2022-12-09T19:34:02.587Z,20.77
2022-12-09T19:36:30.773Z,21.52
2022-12-09T19:38:58.898Z,22.42
2022-12-09T19:41:26.464Z,39.70
2022-12-09T19:44:00.924Z,22.00
2022-12-09T19:46:28.817Z,22.37
2022-12-09T19:48:56.643Z,22.08
2022-12-09T19:51:24.489Z,20.45
2022-12-09T19:53:55.589Z,20.60
2022-12-09T19:56:23.357Z,20.48
2022-12-09T19:58:52.557Z,19.85
2022-12-09T20:01:20.020Z,20.38
2022-12-09T20:03:48.650Z,20.00
2022-12-09T20:06:16.973Z,19.50
2022-12-09T20:08:44.603Z,20.58
2022-12-09T20:11:16.938Z,20.77
2022-12-09T20:13:44.665Z,20.20
2022-12-09T20:16:13.429Z,20.83
2022-12-09T20:18:41.043Z,21.48
2022-12-09T20:21:10.553Z,21.42
2022-12-09T20:23:39.035Z,22.70
2022-12-09T20:26:07.614Z,20.45
2022-12-09T20:28:35.666Z,20.13
2022-12-09T20:31:04.276Z,21.70
2022-12-09T20:33:31.829Z,20.52
2022-12-09T20:36:05.569Z,22.25
2022-12-09T20:38:35.041Z,21.08
2022-12-09T20:41:06.980Z,22.27
2022-12-09T20:43:40.441Z,20.98
2022-12-09T20:46:15.381Z,20.63
2022-12-09T20:48:43.214Z,23.75
2022-12-09T20:51:12.641Z,21.48
2022-12-09T20:53:41.198Z,20.13
2022-12-09T20:56:09.044Z,22.83
2022-12-09T20:58:37.128Z,22.13
2022-12-09T21:01:24.416Z,20.58
2022-12-09T21:03:52.428Z,20.75
2022-12-09T21:06:20.948Z,20.10
2022-12-09T21:08:48.534Z,18.02
2022-12-09T21:11:20.437Z,18.73
2022-12-09T21:13:49.234Z,17.75
2022-12-09T21:16:21.763Z,17.45
2022-12-09T21:18:50.081Z,18.27
2022-12-09T21:21:18.498Z,16.08
2022-12-09T21:23:46.252Z,18.45
2022-12-09T21:26:15.446Z,16.60
2022-12-09T21:28:43.519Z,16.65
2022-12-09T21:31:21.338Z,17.30
2022-12-09T21:33:49.414Z,15.52
2022-12-09T21:36:18.890Z,16.40
2022-12-09T21:38:46.350Z,16.17
2022-12-09T21:41:15.024Z,15.35
2022-12-09T21:43:42.754Z,15.98
2022-12-09T21:46:18.934Z,15.13
2022-12-09T21:48:52.063Z,14.35
2022-12-09T21:51:20.581Z,16.02
2022-12-09T21:53:48.757Z,15.02
2022-12-09T21:56:20.279Z,14.80
2022-12-09T21:58:48.638Z,15.98
2022-12-09T22:01:16.007Z,15.15
2022-12-09T22:03:43.682Z,14.90
2022-12-09T22:06:11.620Z,14.45
2022-12-09T22:08:39.904Z,14.20
2022-12-09T22:11:10.371Z,14.18
2022-12-09T22:13:41.217Z,14.60
2022-12-09T22:16:09.552Z,15.90
2022-12-09T22:18:37.526Z,16.13
2022-12-09T22:21:24.817Z,15.20
2022-12-09T22:23:54.610Z,14.52
2022-12-09T22:26:22.541Z,14.07
2022-12-09T22:28:50.120Z,14.98
2022-12-09T22:31:17.854Z,15.40
2022-12-09T22:33:45.430Z,15.20
2022-12-09T22:36:13.456Z,15.85
2022-12-09T22:38:41.866Z,14.90
2022-12-09T22:41:11.026Z,15.25
2022-12-09T22:43:38.965Z,15.15
2022-12-09T22:46:10.871Z,15.18
2022-12-09T22:48:38.706Z,14.18
2022-12-09T22:51:13.479Z,15.73
2022-12-09T22:53:41.151Z,15.57
2022-12-09T22:56:09.406Z,16.40
2022-12-09T22:58:36.809Z,16.63
2022-12-09T23:01:09.962Z,16.27
2022-12-09T23:03:37.787Z,16.40
2022-12-09T23:06:05.334Z,15.95
2022-12-09T23:08:32.745Z,17.38
2022-12-09T23:11:04.336Z,17.67
2022-12-09T23:13:35.006Z,19.02
2022-12-09T23:16:07.383Z,14.90
2022-12-09T23:18:35.045Z,16.27
2022-12-09T23:21:03.342Z,16.92
2022-12-09T23:23:31.021Z,16.92
2022-12-09T23:26:05.143Z,16.98
2022-12-09T23:28:42.953Z,17.17
2022-12-09T23:31:11.935Z,17.15
2022-12-09T23:33:39.835Z,15.77
2022-12-09T23:36:08.257Z,17.33
2022-12-09T23:38:35.830Z,16.92
2022-12-09T23:41:03.780Z,16.98
2022-12-09T23:43:31.649Z,17.45
2022-12-09T23:46:02.893Z,16.55
2022-12-09T23:48:30.393Z,17.23
2022-12-09T23:50:58.917Z,17.30
2022-12-09T23:53:26.767Z,16.85
2022-12-09T23:55:54.246Z,16.95
2022-12-09T23:58:21.664Z,16.88
